Flight Track Log - Related Links

Times and Time Zones

All times are in EST time to prevent confusion due to time zone crossing. See the AAL390 flight status page for this flight to view local times or setup timezone preferences in your user account.


Time Position Orientation Groundspeed Altitude Reporting Facility
EST Latitude Longitude Course Direction KTS MPH feet Rate Location/Type
Tue 06:39:20 PM 35.8428 -78.9206 254° West 211 243 6,000  Level Washington Center
Tue 06:40:00 PM 36.1692 -79.1689 258° West  Level Estimated
Tue 06:40:20 PM 35.8486 -79.0053 275° West 230 265 9,600  Level Washington Center
Tue 06:41:00 PM 36.2419 -79.2647 261° West  Level Estimated
Tue 06:41:21 PM 35.8436 -79.1050 266° West 260 299 12,600  Level Washington Center
Tue 06:42:00 PM 36.3145 -79.3607 258° West  Level Estimated
Tue 06:42:21 PM 35.8406 -79.2072 268° West 283 326 15,300  Level Washington Center
Tue 06:43:19 PM 35.8356 -79.3044 266° West 313 360 18,100 2,880 Climbing Washington Center
Tue 06:44:51 PM 35.8233 -79.4800 265° West 310 357 22,500 2,329 Climbing Atlanta Center
Tue 06:45:51 PM 35.8086 -79.5911 261° West 316 364 24,000 1,550 Climbing Atlanta Center
Tue 06:46:51 PM 35.7892 -79.6842 256° West 321 369 25,600 1,000 Climbing Atlanta Center
Tue 06:47:51 PM 35.7703 -79.8031 259° West 326 375 26,000 700 Climbing Atlanta Center
Tue 06:48:51 PM 35.7494 -79.9269 258° West 346 398 27,000 1,450 Climbing Atlanta Center
Tue 06:49:51 PM 35.7283 -80.0431 257° West 346 398 28,900 1,900 Climbing Atlanta Center
Tue 06:50:51 PM 35.7089 -80.1564 258° West 346 398 30,800 1,600 Climbing Atlanta Center
Tue 06:51:51 PM 35.6875 -80.2725 257° West 346 398 32,100 1,450 Climbing Atlanta Center
Tue 06:52:51 PM 35.6681 -80.3886 258° West 346 398 33,700 1,400 Climbing Atlanta Center
Tue 06:53:51 PM 35.6714 -80.4983 272° West 327 376 34,900 1,100 Climbing Atlanta Center
Tue 06:54:51 PM 35.7469 -80.5897 316° Northwest 333 383 35,900 550 Climbing Atlanta Center
Tue 06:55:51 PM 35.8247 -80.6836 316° Northwest 362 417 36,000 50 Climbing Atlanta Center
Tue 06:56:51 PM 35.9044 -80.7753 317° Northwest 376 433 36,000  Level Atlanta Center
Tue 06:57:51 PM 35.9819 -80.8722 315° West 387 445 36,000  Level Atlanta Center
Tue 06:58:51 PM 36.0575 -80.9669 315° West 387 445 36,000  Level Atlanta Center
Tue 06:59:51 PM 36.1367 -81.0564 318° Northwest 387 445 36,000  Level Atlanta Center
Tue 07:00:51 PM 36.2325 -81.1353 326° Northwest 397 457 36,000  Level Atlanta Center
Tue 07:01:51 PM 36.3283 -81.2167 326° Northwest 408 470 36,000  Level Atlanta Center
Tue 07:02:51 PM 36.4258 -81.2933 328° Northwest 418 481 36,000  Level Atlanta Center
Tue 07:03:51 PM 36.5236 -81.3753 326° Northwest 418 481 36,000  Level Atlanta Center
Tue 07:04:51 PM 36.6233 -81.4547 327° Northwest 424 488 36,000  Level Atlanta Center
Tue 07:05:51 PM 36.7189 -81.5422 324° Northwest 430 495 36,000  Level Atlanta Center
Tue 07:06:51 PM 36.8022 -81.6381 317° Northwest 425 489 36,000  Level Atlanta Center
Tue 07:07:51 PM 36.8750 -81.7422 311° West 405 466 36,000  Level Atlanta Center
Tue 07:09:06 PM 36.9611 -81.8603 312° West 405 466 36,000  Level Indianapolis Center
Tue 07:10:08 PM 37.0364 -81.9667 312° West 407 468 36,000  Level Indianapolis Center
Tue 07:11:09 PM 37.1242 -82.0892 312° West 406 467 36,000  Level Indianapolis Center
Tue 07:12:11 PM 37.1994 -82.1947 312° West 407 468 36,000  Level Indianapolis Center
Tue 07:13:13 PM 37.2739 -82.3017 311° West 408 470 36,000  Level Indianapolis Center
Tue 07:14:14 PM 37.3506 -82.4086 312° West 411 473 36,000  Level Indianapolis Center
Tue 07:15:16 PM 37.4253 -82.5158 311° West 409 471 36,000  Level Indianapolis Center
Tue 07:16:17 PM 37.5008 -82.6228 312° West 411 473 36,000  Level Indianapolis Center
Tue 07:17:19 PM 37.5883 -82.7486 311° West 410 472 36,000  Level Indianapolis Center
Tue 07:18:20 PM 37.6633 -82.8567 311° West 410 472 36,000  Level Indianapolis Center
Tue 07:19:22 PM 37.7369 -82.9625 311° West 404 465 36,000  Level Indianapolis Center
Tue 07:20:23 PM 37.8078 -83.0650 311° West 391 450 36,000  Level Indianapolis Center
Tue 07:21:25 PM 37.8794 -83.1708 311° West 393 452 36,000  Level Indianapolis Center
Tue 07:22:26 PM 37.9522 -83.2764 311° West 398 458 36,000  Level Indianapolis Center
Tue 07:23:28 PM 38.0294 -83.3781 314° West 399 459 36,000  Level Indianapolis Center
Tue 07:24:29 PM 38.1419 -83.4800 325° Northwest 423 487 36,000  Level Indianapolis Center
Tue 07:25:31 PM 38.2378 -83.5675 324° Northwest 423 487 36,000  Level Indianapolis Center
Tue 07:26:32 PM 38.3333 -83.6519 325° Northwest 418 481 36,000  Level Indianapolis Center
Tue 07:27:34 PM 38.4292 -83.7389 325° Northwest 421 484 36,000  Level Indianapolis Center
Tue 07:28:36 PM 38.5253 -83.8272 324° Northwest 424 488 36,000  Level Indianapolis Center
Tue 07:29:37 PM 38.6203 -83.9167 324° Northwest 426 490 36,000  Level Indianapolis Center
Tue 07:30:39 PM 38.7181 -84.0061 324° Northwest 426 490 36,000  Level Indianapolis Center
Tue 07:31:40 PM 38.8144 -84.0953 324° Northwest 429 494 36,000  Level Indianapolis Center
Tue 07:32:42 PM 38.9142 -84.1836 325° Northwest 433 498 36,000  Level Indianapolis Center
Tue 07:33:43 PM 39.0117 -84.2722 325° Northwest 429 494 36,000 -585 Level Indianapolis Center
Tue 07:34:45 PM 39.1247 -84.3792 324° Northwest 420 483 34,800 -1,122 Descending Indianapolis Center
Tue 07:35:46 PM 39.2197 -84.4667 324° Northwest 420 483 33,700 -1,171 Descending Indianapolis Center
Tue 07:36:48 PM 39.3150 -84.5542 325° Northwest 419 482 32,400 -1,268 Descending Indianapolis Center
Tue 07:37:49 PM 39.4067 -84.6408 324° Northwest 411 473 31,100 -1,415 Descending Indianapolis Center
Tue 07:38:51 PM 39.5025 -84.7303 324° Northwest 420 483 29,500 -1,512 Descending Indianapolis Center
Tue 07:39:52 PM 39.5975 -84.8189 324° Northwest 420 483 28,000 -732 Descending Indianapolis Center
Tue 07:40:54 PM 39.6906 -84.9089 323° Northwest 418 481 28,000  Level Indianapolis Center
Tue 07:41:55 PM 39.7839 -84.9967 324° Northwest 417 480 28,000 -634 Level Indianapolis Center
Tue 07:42:57 PM 39.8958 -85.1025 324° Northwest 418 481 26,700 -976 Descending Indianapolis Center
Tue 07:43:58 PM 39.9881 -85.1914 324° Northwest 417 480 26,000 -341 Descending Indianapolis Center
Tue 07:45:00 PM 40.0811 -85.2797 324° Northwest 417 480 26,000  Level Indianapolis Center
Tue 07:46:01 PM 40.1733 -85.3681 324° Northwest 415 478 26,000  Level Indianapolis Center
Tue 07:47:03 PM 40.2642 -85.4561 324° Northwest 412 474 26,000 -341 Level Indianapolis Center
Tue 07:48:04 PM 40.3556 -85.5444 324° Northwest 413 475 25,300 -829 Descending Indianapolis Center
Tue 07:49:06 PM 40.4481 -85.6331 324° Northwest 415 478 24,300 -857 Descending Indianapolis Center
Tue 07:50:03 PM 40.5428 -85.7172 326° Northwest 416 479 23,600 -958 Descending Chicago Center
Tue 07:51:05 PM 40.6344 -85.8067 323° Northwest 413 475 22,400 -774 Descending Chicago Center
Tue 07:52:07 PM 40.7267 -85.8944 324° Northwest 402 463 22,000 -195 Descending Chicago Center
Tue 07:53:08 PM 40.8339 -85.9983 324° Northwest 399 459 22,000  Level Chicago Center
Tue 07:54:10 PM 40.9258 -86.0850 325° Northwest 401 461 22,000 -484 Level Chicago Center
Tue 07:55:12 PM 41.0150 -86.1706 324° Northwest 399 459 21,000 -1,210 Descending Chicago Center
Tue 07:56:14 PM 41.1025 -86.2531 325° Northwest 391 450 19,500 -1,561 Descending Chicago Center
Tue 07:57:15 PM 41.1867 -86.3356 324° Northwest 379 436 17,800 -1,561 Descending Chicago Center
Tue 07:58:17 PM 41.2689 -86.4158 324° Northwest 369 425 16,300 -1,452 Descending Chicago Center
Tue 07:59:19 PM 41.3514 -86.4947 324° Northwest 366 421 14,800 -1,452 Descending Chicago Center
Tue 08:00:21 PM 41.4300 -86.5700 324° Northwest 354 407 13,300 -1,366 Descending Chicago Center
Tue 08:01:22 PM 41.5197 -86.6586 324° Northwest 339 390 12,000 -585 Descending Chicago Center
Tue 08:02:24 PM 41.5903 -86.7283 324° Northwest 335 386 12,100 48 Climbing Chicago Center
Tue 08:03:26 PM 41.6681 -86.7942 328° Northwest 338 389 12,100  Level Chicago Center
Tue 08:04:28 PM 41.7656 -86.8069 354° North 356 410 12,100 -290 Level Chicago Center
Tue 08:05:30 PM 41.8767 -86.8422 347° North 346 398 11,500 -976 Descending Chicago Center
Tue 08:06:31 PM 41.9233 -86.9400 303° West 313 360 10,100 -683 Descending Chicago Center
Tue 08:07:33 PM 41.9581 -87.0428 294° West 305 351 10,100  Level Chicago Center
Tue 08:08:35 PM 41.9817 -87.1431 288° West 288 331 10,100 -585 Level Chicago Center
Tue 08:09:36 PM 41.9831 -87.2333 271° West 246 283 8,900 -1,122 Descending Chicago Center
Tue 08:10:38 PM 41.9825 -87.3192 270° West 234 269 7,800 -871 Descending Chicago Center
Tue 08:11:40 PM 41.9850 -87.4194 272° West 227 261 7,100 -581 Descending Chicago Center
Tue 08:12:42 PM 41.9825 -87.4764 267° West 165 190 6,600 -634 Descending Chicago Center
Tue 08:13:43 PM 41.9839 -87.5344 272° West 158 182 5,800 -780 Descending Chicago Center
Tue 08:14:45 PM 41.9836 -87.5908 270° West 154 177 5,000 -774 Descending Chicago Center
Tue 08:15:47 PM 41.9839 -87.6483 270° West 155 178 4,200 -683 Descending Chicago Center
Tue 08:16:48 PM 41.9842 -87.7033 270° West 152 175 3,600 -732 Descending Chicago Center
Tue 08:17:50 PM 41.9836 -87.7667 269° West 147 169 2,700 -774 Descending Chicago Center
Tue 08:18:52 PM 41.9847 -87.8122 272° West 138 159 2,000 -656 Descending Chicago Center
Tue 08:19:58 PM 41.9833 -87.8500 267° West 107 123 1,300 -636 Descending Chicago TRACON

Login

Don't have an account? Register now (free) for customized features, flight alerts, and more!